createdAt,value
2022-09-21T00:01:46.562Z,12.49
2022-09-21T00:04:15.317Z,12.45
2022-09-21T00:06:43.812Z,12.40
2022-09-21T00:09:12.425Z,12.39
2022-09-21T00:11:41.026Z,12.38
2022-09-21T00:14:14.459Z,12.37
2022-09-21T00:16:44.210Z,12.36
2022-09-21T00:19:12.874Z,12.34
2022-09-21T00:21:41.372Z,12.33
2022-09-21T00:24:09.983Z,12.33
2022-09-21T00:26:38.739Z,12.32
2022-09-21T00:29:07.552Z,12.32
2022-09-21T00:31:36.218Z,12.32
2022-09-21T00:34:08.061Z,12.31
2022-09-21T00:36:36.926Z,12.31
2022-09-21T00:39:05.887Z,12.30
2022-09-21T00:41:35.375Z,12.30
2022-09-21T00:44:16.446Z,12.29
2022-09-21T00:46:46.223Z,12.28
2022-09-21T00:49:16.196Z,12.26
2022-09-21T00:51:46.204Z,12.22
2022-09-21T00:54:26.439Z,12.21
2022-09-21T00:56:58.197Z,12.19
2022-09-21T00:59:30.105Z,12.16
2022-09-21T01:01:59.901Z,12.15
2022-09-21T01:04:29.972Z,12.12
2022-09-21T01:07:01.507Z,12.09
2022-09-21T01:09:30.664Z,12.06
2022-09-21T01:12:23.390Z,12.04
2022-09-21T01:15:13.511Z,12.00
2022-09-21T01:18:13.262Z,11.96
2022-09-21T01:20:56.328Z,11.93
2022-09-21T01:23:40.377Z,11.91
2022-09-21T01:26:27.644Z,11.88
2022-09-21T01:29:11.286Z,11.86
2022-09-21T01:32:15.985Z,11.83
2022-09-21T01:34:52.292Z,11.79
2022-09-21T01:37:29.785Z,11.76
2022-09-21T01:40:05.145Z,11.74
2022-09-21T01:42:35.607Z,11.71
2022-09-21T01:45:07.491Z,11.68
2022-09-21T01:47:38.015Z,11.66
2022-09-21T01:50:09.388Z,11.64
2022-09-21T01:52:57.835Z,11.61
2022-09-21T01:55:31.273Z,11.59
2022-09-21T01:58:12.156Z,11.56
2022-09-21T02:00:42.582Z,11.54
2022-09-21T02:03:27.936Z,11.52
2022-09-21T02:05:58.702Z,11.49
2022-09-21T02:08:30.015Z,11.48
2022-09-21T02:11:01.081Z,11.46
2022-09-21T02:13:34.358Z,11.44
2022-09-21T02:16:30.878Z,11.43
2022-09-21T02:19:13.455Z,11.39
2022-09-21T02:22:04.024Z,11.35
2022-09-21T02:24:52.331Z,11.32
2022-09-21T02:27:48.922Z,11.29
2022-09-21T02:30:19.538Z,11.27
2022-09-21T02:33:05.406Z,11.25
2022-09-21T02:35:52.352Z,11.24
2022-09-21T02:38:32.968Z,11.22
2022-09-21T02:41:24.731Z,11.21
2022-09-21T02:44:17.586Z,11.19
2022-09-21T02:47:02.147Z,11.17
2022-09-21T02:49:43.748Z,11.14
2022-09-21T02:52:17.316Z,11.13
2022-09-21T02:54:50.922Z,11.11
2022-09-21T02:57:22.178Z,11.09
2022-09-21T02:59:52.846Z,11.06
2022-09-21T03:02:21.495Z,11.05
2022-09-21T03:04:50.319Z,11.03
2022-09-21T03:07:19.008Z,11.01
2022-09-21T03:09:47.536Z,11.00
2022-09-21T03:12:16.088Z,10.99
2022-09-21T03:14:45.038Z,10.98
2022-09-21T03:17:13.478Z,10.97
2022-09-21T03:19:42.090Z,10.95
2022-09-21T03:22:10.669Z,10.94
2022-09-21T03:24:47.978Z,10.92
2022-09-21T03:27:20.061Z,10.91
2022-09-21T03:29:50.115Z,10.88
2022-09-21T03:32:18.985Z,10.84
2022-09-21T03:34:47.504Z,10.82
2022-09-21T03:37:16.317Z,10.80
2022-09-21T03:39:46.431Z,10.78
2022-09-21T03:42:15.114Z,10.76
2022-09-21T03:44:44.008Z,10.75
2022-09-21T03:47:12.733Z,10.74
2022-09-21T03:49:41.440Z,10.73
2022-09-21T03:52:10.025Z,10.73
2022-09-21T03:54:38.620Z,10.72
2022-09-21T03:57:07.147Z,10.72
2022-09-21T03:59:35.844Z,10.70
2022-09-21T04:02:04.492Z,10.69
2022-09-21T04:04:33.094Z,10.69
2022-09-21T04:07:01.688Z,10.70
2022-09-21T04:09:30.785Z,10.68
2022-09-21T04:11:59.254Z,10.69
2022-09-21T04:14:28.049Z,10.70
2022-09-21T04:16:56.941Z,10.72
2022-09-21T04:19:26.146Z,10.75
2022-09-21T04:21:56.453Z,10.78
2022-09-21T04:24:24.990Z,10.82
2022-09-21T04:26:53.526Z,10.86
2022-09-21T04:29:22.331Z,10.92
2022-09-21T04:31:50.876Z,10.97
2022-09-21T04:34:19.468Z,11.01
2022-09-21T04:36:48.489Z,11.06
2022-09-21T04:39:17.018Z,11.12
2022-09-21T04:41:45.852Z,11.19
2022-09-21T04:44:14.469Z,11.26
2022-09-21T04:46:42.935Z,11.34
2022-09-21T04:49:11.450Z,11.43
2022-09-21T04:51:39.985Z,11.50
2022-09-21T04:54:08.598Z,11.59
2022-09-21T04:56:37.596Z,11.68
2022-09-21T04:59:06.139Z,11.76
2022-09-21T05:01:35.049Z,11.85
2022-09-21T05:04:03.883Z,11.95
2022-09-21T05:06:34.081Z,12.05
2022-09-21T05:09:21.010Z,12.15
2022-09-21T05:11:50.182Z,12.27
2022-09-21T05:14:18.789Z,12.37
2022-09-21T05:16:50.073Z,12.47
2022-09-21T05:19:18.693Z,12.56
2022-09-21T05:21:47.381Z,12.65
2022-09-21T05:24:16.088Z,12.75
2022-09-21T05:26:44.587Z,12.86
2022-09-21T05:29:13.445Z,12.98
2022-09-21T05:32:01.670Z,13.12
2022-09-21T05:34:42.526Z,13.24
2022-09-21T05:37:38.295Z,13.36
2022-09-21T05:40:07.798Z,13.49
2022-09-21T05:42:36.883Z,13.63
2022-09-21T05:45:06.536Z,13.74
2022-09-21T05:48:03.438Z,13.84
2022-09-21T05:51:00.152Z,13.95
2022-09-21T05:53:31.551Z,14.03
2022-09-21T05:56:14.272Z,14.12
2022-09-21T05:59:04.627Z,14.27
2022-09-21T06:01:51.905Z,14.38
2022-09-21T06:04:20.787Z,14.46
2022-09-21T06:06:50.040Z,14.53
2022-09-21T06:09:18.792Z,14.59
2022-09-21T06:11:48.012Z,14.63
2022-09-21T06:14:16.587Z,14.67
2022-09-21T06:16:45.100Z,14.71
2022-09-21T06:19:14.192Z,14.75
2022-09-21T06:21:42.771Z,14.82
2022-09-21T06:24:12.142Z,14.86
2022-09-21T06:26:40.666Z,14.84
2022-09-21T06:29:09.187Z,14.81
2022-09-21T06:31:37.786Z,14.80
2022-09-21T06:34:06.293Z,14.80
2022-09-21T06:36:34.848Z,14.79
2022-09-21T06:39:03.610Z,14.78
2022-09-21T06:41:32.796Z,14.77
2022-09-21T06:44:01.505Z,14.76
2022-09-21T06:46:30.199Z,14.75
2022-09-21T06:48:58.850Z,14.76
2022-09-21T06:51:27.425Z,14.78
2022-09-21T06:53:57.249Z,14.81
2022-09-21T06:56:26.905Z,14.83
2022-09-21T06:58:56.102Z,14.84
2022-09-21T07:01:25.108Z,14.88
2022-09-21T07:03:54.574Z,14.94
2022-09-21T07:06:23.117Z,15.01
2022-09-21T07:11:43.549Z,15.15
2022-09-21T07:14:12.270Z,15.22
2022-09-21T07:16:41.368Z,15.30
2022-09-21T07:19:11.296Z,15.38
2022-09-21T07:21:40.507Z,15.47
2022-09-21T07:24:12.524Z,15.55
2022-09-21T07:26:41.582Z,15.63
2022-09-21T07:29:10.187Z,15.70
2022-09-21T07:31:38.849Z,15.76
2022-09-21T07:34:07.559Z,15.81
2022-09-21T07:36:36.230Z,15.86
2022-09-21T07:39:05.523Z,15.92
2022-09-21T07:41:34.300Z,15.96
2022-09-21T07:44:04.091Z,16.02
2022-09-21T07:46:33.172Z,16.11
2022-09-21T07:49:01.856Z,16.18
2022-09-21T07:51:30.450Z,16.27
2022-09-21T07:53:58.958Z,16.35
2022-09-21T07:56:27.564Z,16.42
2022-09-21T07:59:08.588Z,16.50
2022-09-21T08:01:42.164Z,16.57
2022-09-21T08:04:11.727Z,16.65
2022-09-21T08:06:40.589Z,16.73
2022-09-21T08:09:09.371Z,16.79
2022-09-21T08:11:39.738Z,16.84
2022-09-21T08:14:08.342Z,16.89
2022-09-21T08:16:39.057Z,16.91
2022-09-21T08:19:07.741Z,16.92
2022-09-21T08:21:36.461Z,16.94
2022-09-21T08:24:05.338Z,16.95
2022-09-21T08:26:33.945Z,16.96
2022-09-21T08:29:03.256Z,16.98
2022-09-21T08:31:32.001Z,17.04
2022-09-21T08:34:01.428Z,17.12
2022-09-21T08:36:29.993Z,17.22
2022-09-21T08:38:58.650Z,17.31
2022-09-21T08:41:46.562Z,17.41
2022-09-21T08:44:15.361Z,17.50
2022-09-21T08:46:47.012Z,17.63
2022-09-21T08:49:27.194Z,17.81
2022-09-21T08:52:06.299Z,17.97
2022-09-21T08:54:50.149Z,18.08
2022-09-21T08:57:20.399Z,18.08
2022-09-21T08:59:50.496Z,18.02
2022-09-21T09:02:52.884Z,17.98
2022-09-21T09:05:39.930Z,18.13
2022-09-21T09:08:33.813Z,18.25
2022-09-21T09:11:49.309Z,18.32
2022-09-21T09:14:34.388Z,18.37
2022-09-21T09:17:30.664Z,18.45
2022-09-21T09:20:05.852Z,18.59
2022-09-21T09:22:44.386Z,18.60
2022-09-21T09:25:22.180Z,18.58
2022-09-21T09:28:06.219Z,18.62
2022-09-21T09:30:36.161Z,18.78
2022-09-21T09:33:25.914Z,18.99
2022-09-21T09:36:06.832Z,19.24
2022-09-21T09:38:57.599Z,19.38
2022-09-21T09:42:03.261Z,19.34
2022-09-21T09:44:34.932Z,19.25
2022-09-21T09:47:03.775Z,19.27
2022-09-21T09:49:44.591Z,19.41
2022-09-21T09:52:15.638Z,19.53
2022-09-21T09:54:44.884Z,19.52
2022-09-21T09:57:13.972Z,19.44
2022-09-21T09:59:54.050Z,19.39
2022-09-21T10:02:26.767Z,19.47
2022-09-21T10:05:06.363Z,19.69
2022-09-21T10:07:41.342Z,19.98
2022-09-21T10:10:22.304Z,20.18
2022-09-21T10:12:53.029Z,20.40
2022-09-21T10:15:25.439Z,20.51
2022-09-21T10:18:20.329Z,20.48
2022-09-21T10:20:58.136Z,20.47
2022-09-21T10:23:28.038Z,20.61
2022-09-21T10:26:01.846Z,20.69
2022-09-21T10:28:31.790Z,20.75
2022-09-21T10:31:11.764Z,20.81
2022-09-21T10:34:06.225Z,20.92
2022-09-21T10:36:39.527Z,20.77
2022-09-21T10:39:29.638Z,20.53
2022-09-21T10:42:06.448Z,20.39
2022-09-21T10:44:47.098Z,20.32
2022-09-21T10:47:24.524Z,20.23
2022-09-21T10:49:55.687Z,20.11
2022-09-21T10:52:36.468Z,20.11
2022-09-21T10:55:07.347Z,20.20
2022-09-21T10:57:36.267Z,20.18
2022-09-21T11:00:29.707Z,20.09
2022-09-21T11:03:01.679Z,19.96
2022-09-21T11:05:35.483Z,19.92
2022-09-21T11:08:11.849Z,19.94
2022-09-21T11:10:50.546Z,19.92
2022-09-21T11:13:45.452Z,19.97
2022-09-21T11:16:13.938Z,20.05
2022-09-21T11:18:57.881Z,20.10
2022-09-21T11:21:50.808Z,20.15
2022-09-21T11:24:43.092Z,20.19
2022-09-21T11:27:24.768Z,20.26
2022-09-21T11:30:18.903Z,20.33
2022-09-21T11:32:50.446Z,20.45
2022-09-21T11:35:42.408Z,20.50
2022-09-21T11:38:34.604Z,20.44
2022-09-21T11:41:14.161Z,20.40
2022-09-21T11:44:16.499Z,20.39
2022-09-21T11:46:55.763Z,20.45
2022-09-21T11:49:36.536Z,20.48
2022-09-21T11:52:40.548Z,20.47
2022-09-21T11:55:17.063Z,20.42
2022-09-21T11:58:05.453Z,20.33
2022-09-21T12:01:00.690Z,20.16
2022-09-21T12:03:41.618Z,20.09
2022-09-21T12:06:36.706Z,20.03
2022-09-21T12:09:18.346Z,19.88
2022-09-21T12:12:10.774Z,19.84
2022-09-21T12:15:09.127Z,19.85
2022-09-21T12:18:17.742Z,19.86
2022-09-21T12:20:53.207Z,19.82
2022-09-21T12:23:43.664Z,19.77
2022-09-21T12:26:18.892Z,19.77
2022-09-21T12:28:52.545Z,19.76
2022-09-21T12:31:26.647Z,19.77
2022-09-21T12:34:19.157Z,19.78
2022-09-21T12:37:00.318Z,19.79
2022-09-21T12:39:36.864Z,19.81
2022-09-21T12:42:27.987Z,19.79
2022-09-21T12:45:03.792Z,19.79
2022-09-21T12:47:47.464Z,19.77
2022-09-21T12:50:22.663Z,19.75
2022-09-21T12:52:52.878Z,19.72
2022-09-21T12:55:22.234Z,19.68
2022-09-21T12:58:16.390Z,19.65
2022-09-21T13:01:00.999Z,19.62
2022-09-21T13:04:02.463Z,19.61
2022-09-21T13:06:49.803Z,19.57
2022-09-21T13:09:21.182Z,19.56
2022-09-21T13:12:34.981Z,19.59
2022-09-21T13:15:14.352Z,19.61
2022-09-21T13:17:43.442Z,19.61
2022-09-21T13:20:22.163Z,19.61
2022-09-21T13:23:01.238Z,19.60
2022-09-21T13:25:32.789Z,19.62
2022-09-21T13:28:04.583Z,19.63
2022-09-21T13:30:40.734Z,19.64
2022-09-21T13:33:18.493Z,19.65
2022-09-21T13:36:13.723Z,19.61
2022-09-21T13:38:44.987Z,19.50
2022-09-21T13:41:19.576Z,19.41
2022-09-21T13:43:59.751Z,19.39
2022-09-21T13:46:37.420Z,19.39
2022-09-21T13:49:22.951Z,19.32
2022-09-21T13:52:03.017Z,19.25
2022-09-21T13:54:34.608Z,19.20
2022-09-21T13:57:16.043Z,19.16
2022-09-21T13:59:47.464Z,19.13
2022-09-21T14:02:28.140Z,19.10
2022-09-21T14:04:58.049Z,19.06
2022-09-21T14:07:31.670Z,19.03
2022-09-21T14:10:04.481Z,18.99
2022-09-21T14:12:40.084Z,18.95
2022-09-21T14:15:18.383Z,18.90
2022-09-21T14:18:18.258Z,18.85
2022-09-21T14:21:08.656Z,18.75
2022-09-21T14:23:38.901Z,18.70
2022-09-21T14:26:36.493Z,18.70
2022-09-21T14:29:32.536Z,18.67
2022-09-21T14:32:04.827Z,18.62
2022-09-21T14:34:37.465Z,18.52
2022-09-21T14:37:27.973Z,18.40
2022-09-21T14:39:58.653Z,18.36
2022-09-21T14:42:29.589Z,18.31
2022-09-21T14:45:02.456Z,18.30
2022-09-21T14:47:55.893Z,18.28
2022-09-21T14:50:29.535Z,18.21
2022-09-21T14:53:08.421Z,18.20
2022-09-21T14:55:49.032Z,18.20
2022-09-21T14:58:28.924Z,18.20
2022-09-21T15:01:21.803Z,18.19
2022-09-21T15:04:19.422Z,18.17
2022-09-21T15:07:21.455Z,18.15
2022-09-21T15:10:34.894Z,18.14
2022-09-21T15:13:36.936Z,18.13
2022-09-21T15:16:24.076Z,18.13
2022-09-21T15:19:21.283Z,18.11
2022-09-21T15:22:12.433Z,18.07
2022-09-21T15:24:59.772Z,18.04
2022-09-21T15:27:34.009Z,18.03
2022-09-21T15:30:06.316Z,17.99
2022-09-21T15:32:42.159Z,17.90
2022-09-21T15:35:20.704Z,17.80
2022-09-21T15:37:51.329Z,17.77
2022-09-21T15:40:28.587Z,17.72
2022-09-21T15:43:02.160Z,17.68
2022-09-21T15:45:45.556Z,17.64
2022-09-21T15:48:14.652Z,17.60
2022-09-21T15:50:46.388Z,17.57
2022-09-21T15:53:30.505Z,17.53
2022-09-21T15:56:03.040Z,17.51
2022-09-21T15:58:37.660Z,17.48
2022-09-21T16:01:18.003Z,17.45
2022-09-21T16:03:46.967Z,17.39
2022-09-21T16:06:26.379Z,17.35
2022-09-21T16:08:55.696Z,17.31
2022-09-21T16:11:27.951Z,17.30
2022-09-21T16:14:30.637Z,17.27
2022-09-21T16:17:18.366Z,17.22
2022-09-21T16:19:51.241Z,17.18
2022-09-21T16:22:44.604Z,17.14
2022-09-21T16:25:30.776Z,17.10
2022-09-21T16:28:29.718Z,17.08
2022-09-21T16:30:59.399Z,17.05
2022-09-21T16:33:44.988Z,17.01
2022-09-21T16:36:22.600Z,16.96
2022-09-21T16:38:55.510Z,16.92
2022-09-21T16:41:32.653Z,16.90
2022-09-21T16:44:02.045Z,16.89
2022-09-21T16:46:32.309Z,16.86
2022-09-21T16:49:01.003Z,16.82
2022-09-21T16:51:29.781Z,16.80
2022-09-21T16:53:58.857Z,16.79
2022-09-21T16:56:27.467Z,16.76
2022-09-21T16:58:57.448Z,16.74
2022-09-21T17:01:27.054Z,16.71
2022-09-21T17:03:57.137Z,16.71
2022-09-21T17:06:25.776Z,16.70
2022-09-21T17:08:54.366Z,16.69
2022-09-21T17:11:24.601Z,16.66
2022-09-21T17:13:53.664Z,16.63
2022-09-21T17:16:22.887Z,16.62
2022-09-21T17:18:51.640Z,16.61
2022-09-21T17:21:20.535Z,16.60
2022-09-21T17:23:49.529Z,16.59
2022-09-21T17:26:19.560Z,16.56
2022-09-21T17:28:48.389Z,16.53
2022-09-21T17:31:17.211Z,16.52
2022-09-21T17:33:48.066Z,16.51
2022-09-21T17:36:18.394Z,16.50
2022-09-21T17:38:47.052Z,16.50
2022-09-21T17:41:25.708Z,16.51
2022-09-21T17:44:04.360Z,16.49
2022-09-21T17:46:51.656Z,16.48
2022-09-21T17:49:20.670Z,16.48
2022-09-21T17:52:08.105Z,16.47
2022-09-21T17:54:40.123Z,16.46
2022-09-21T17:57:22.502Z,16.46
2022-09-21T18:00:04.646Z,16.46
2022-09-21T18:02:34.299Z,16.46
2022-09-21T18:05:15.269Z,16.47
2022-09-21T18:07:44.150Z,16.47
2022-09-21T18:10:16.770Z,16.47
2022-09-21T18:13:03.873Z,16.47
2022-09-21T18:16:20.099Z,16.47
2022-09-21T18:19:13.196Z,16.47
2022-09-21T18:21:44.314Z,16.47
2022-09-21T18:24:22.026Z,16.47
2022-09-21T18:26:52.794Z,16.44
2022-09-21T18:29:46.572Z,16.40
2022-09-21T18:32:49.625Z,16.34
2022-09-21T18:35:47.566Z,16.27
2022-09-21T18:38:24.767Z,16.24
2022-09-21T18:41:13.120Z,16.22
2022-09-21T18:44:00.779Z,16.20
2022-09-21T18:46:41.918Z,16.17
2022-09-21T18:49:13.519Z,16.16
2022-09-21T18:52:07.751Z,16.15
2022-09-21T18:54:36.402Z,16.14
2022-09-21T18:57:12.498Z,16.14
2022-09-21T18:59:42.467Z,16.13
2022-09-21T19:02:15.090Z,16.12
2022-09-21T19:04:45.270Z,16.11
2022-09-21T19:07:18.681Z,16.10
2022-09-21T19:09:53.399Z,16.09
2022-09-21T19:12:49.204Z,16.07
2022-09-21T19:15:48.677Z,16.06
2022-09-21T19:18:57.625Z,16.06
2022-09-21T19:21:27.646Z,16.03
2022-09-21T19:24:08.698Z,16.03
2022-09-21T19:26:56.256Z,16.02
2022-09-21T19:30:02.386Z,16.00
2022-09-21T19:32:44.850Z,15.97
2022-09-21T19:35:31.285Z,15.94
2022-09-21T19:38:02.069Z,15.90
2022-09-21T19:40:39.026Z,15.87
2022-09-21T19:43:33.989Z,15.85
2022-09-21T19:46:33.879Z,15.82
2022-09-21T19:49:18.306Z,15.79
2022-09-21T19:51:52.565Z,15.77
2022-09-21T19:54:42.423Z,15.75
2022-09-21T19:57:35.393Z,15.74
2022-09-21T20:00:10.237Z,15.71
2022-09-21T20:03:03.797Z,15.69
2022-09-21T20:05:41.087Z,15.66
2022-09-21T20:08:21.954Z,15.63
2022-09-21T20:11:06.340Z,15.60
2022-09-21T20:13:50.150Z,15.56
2022-09-21T20:16:33.750Z,15.51
2022-09-21T20:19:18.416Z,15.47
2022-09-21T20:21:51.741Z,15.42
2022-09-21T20:24:52.993Z,15.38
2022-09-21T20:27:42.641Z,15.35
2022-09-21T20:30:14.398Z,15.32
2022-09-21T20:32:46.873Z,15.29
2022-09-21T20:35:30.921Z,15.26
2022-09-21T20:38:02.746Z,15.22
2022-09-21T20:40:32.597Z,15.18
2022-09-21T20:43:02.071Z,15.15
2022-09-21T20:45:33.568Z,15.11
2022-09-21T20:48:15.318Z,15.07
2022-09-21T20:50:46.726Z,15.03
2022-09-21T20:53:16.064Z,15.00
2022-09-21T20:55:54.092Z,14.96
2022-09-21T20:58:24.234Z,14.92
2022-09-21T21:00:58.570Z,14.89
2022-09-21T21:03:27.771Z,14.86
2022-09-21T21:06:10.420Z,14.83
2022-09-21T21:08:39.379Z,14.79
2022-09-21T21:11:08.475Z,14.75
2022-09-21T21:13:37.981Z,14.71
2022-09-21T21:16:11.778Z,14.67
2022-09-21T21:18:41.724Z,14.63
2022-09-21T21:21:11.420Z,14.59
2022-09-21T21:24:06.200Z,14.56
2022-09-21T21:26:57.799Z,14.50
2022-09-21T21:29:24.782Z,14.46
2022-09-21T21:31:53.627Z,14.42
2022-09-21T21:34:23.694Z,14.38
2022-09-21T21:36:53.713Z,14.31
2022-09-21T21:39:22.296Z,14.24
2022-09-21T21:41:50.981Z,14.20
2022-09-21T21:44:19.565Z,14.17
2022-09-21T21:46:48.454Z,14.12
2022-09-21T21:49:17.759Z,14.08
2022-09-21T21:51:49.487Z,14.05
2022-09-21T21:54:19.224Z,14.03
2022-09-21T21:56:48.116Z,14.00
2022-09-21T21:59:17.890Z,13.97
2022-09-21T22:01:47.538Z,13.94
2022-09-21T22:04:16.770Z,13.92
2022-09-21T22:06:45.286Z,13.90
2022-09-21T22:09:15.001Z,13.86
2022-09-21T22:11:43.760Z,13.83
2022-09-21T22:14:13.030Z,13.80
2022-09-21T22:16:41.684Z,13.76
2022-09-21T22:19:10.306Z,13.72
2022-09-21T22:21:48.184Z,13.69
2022-09-21T22:24:20.025Z,13.66
2022-09-21T22:26:49.087Z,13.63
2022-09-21T22:29:18.172Z,13.61
2022-09-21T22:31:50.346Z,13.59
2022-09-21T22:34:20.510Z,13.56
2022-09-21T22:36:50.642Z,13.55
2022-09-21T22:39:19.161Z,13.54
2022-09-21T22:41:47.710Z,13.52
2022-09-21T22:44:16.363Z,13.49
2022-09-21T22:46:44.896Z,13.48
2022-09-21T22:49:13.374Z,13.47
2022-09-21T22:51:41.925Z,13.45
2022-09-21T22:54:10.449Z,13.43
2022-09-21T22:56:39.208Z,13.40
2022-09-21T22:59:08.609Z,13.38
2022-09-21T23:01:39.339Z,13.35
2022-09-21T23:04:10.825Z,13.32
2022-09-21T23:06:42.500Z,13.30
2022-09-21T23:09:20.006Z,13.27
2022-09-21T23:11:53.872Z,13.26
2022-09-21T23:14:23.531Z,13.23
2022-09-21T23:16:52.269Z,13.20
2022-09-21T23:19:20.863Z,13.18
2022-09-21T23:21:50.698Z,13.17
2022-09-21T23:24:20.193Z,13.16
2022-09-21T23:26:51.891Z,13.14
2022-09-21T23:29:20.671Z,13.12
2022-09-21T23:31:49.320Z,13.10
2022-09-21T23:34:18.167Z,13.07
2022-09-21T23:36:46.815Z,13.05
2022-09-21T23:39:16.081Z,13.03
2022-09-21T23:41:45.529Z,13.02
2022-09-21T23:44:14.328Z,13.00
2022-09-21T23:46:43.416Z,12.98
2022-09-21T23:49:12.228Z,12.97
2022-09-21T23:51:41.612Z,12.95
2022-09-21T23:54:10.821Z,12.93
2022-09-21T23:56:39.443Z,12.91
2022-09-21T23:59:08.178Z,12.89
